Time;durP1;ratioP1;P1;durP2;ratioP2;P2;SDS_P1;SDS_P2;PMS_P1;PMS_P2;Temp;Humidity;BMP_temperature;BMP_pressure;BME280_temperature;BME280_humidity;BME280_pressure;Samples;Min_cycle;Max_cycle;Signal;HPM_P1;HPM_P2
2021/08/25 00:02:10;;;;;;;;;9.25;8.00;;;;;17.82;57.14;102011.84;5029573;28;45517;-75
2021/08/25 00:04:42;;;;;;;;;13.00;7.75;;;;;17.79;57.42;102005.81;5029364;28;46579;-75
2021/08/25 00:07:08;;;;;;;;;12.00;9.25;;;;;17.79;57.58;102013.78;5031459;28;45549;-75
2021/08/25 00:09:38;;;;;;;;;8.00;7.00;;;;;17.72;57.24;102008.78;5030661;28;45372;-75
2021/08/25 00:12:04;;;;;;;;;9.25;8.00;;;;;17.66;57.52;101998.47;5028233;28;46208;-75
2021/08/25 00:14:30;;;;;;;;;10.75;7.00;;;;;17.72;57.31;101999.94;5029296;28;45894;-76
2021/08/25 00:16:56;;;;;;;;;8.75;6.50;;;;;17.65;57.60;101985.25;5029213;28;45504;-74
2021/08/25 00:19:21;;;;;;;;;8.00;7.50;;;;;17.59;57.47;101985.56;5037467;28;45489;-75
2021/08/25 00:21:46;;;;;;;;;7.75;7.25;;;;;17.59;57.69;101982.88;5032792;28;45838;-75
2021/08/25 00:24:12;;;;;;;;;12.25;10.00;;;;;17.64;57.68;101997.66;5027148;28;45469;-75
2021/08/25 00:26:37;;;;;;;;;8.25;6.00;;;;;17.64;57.86;101995.00;5031612;28;45671;-74
2021/08/25 00:29:03;;;;;;;;;8.00;8.00;;;;;17.53;57.86;101980.56;5028563;28;45546;-75
2021/08/25 00:31:28;;;;;;;;;9.00;8.50;;;;;17.59;58.01;101990.88;5028682;28;46287;-74
2021/08/25 00:33:53;;;;;;;;;7.25;7.25;;;;;17.48;57.77;101971.03;5031940;28;52070;-75
2021/08/25 00:36:18;;;;;;;;;7.50;6.75;;;;;17.58;57.96;101986.50;5030968;28;45431;-76
2021/08/25 00:38:44;;;;;;;;;9.75;7.00;;;;;17.48;58.25;101965.69;5030682;28;45666;-75
2021/08/25 00:41:09;;;;;;;;;9.50;7.00;;;;;17.52;58.15;101978.84;5029795;28;46248;-75
2021/08/25 00:43:35;;;;;;;;;6.75;6.75;;;;;17.51;58.31;101977.13;5031401;28;49645;-75
2021/08/25 00:46:00;;;;;;;;;12.75;7.25;;;;;17.41;57.93;101956.34;5042957;28;45443;-75
2021/08/25 00:48:25;;;;;;;;;9.00;6.00;;;;;17.51;58.18;101978.00;5029106;28;46853;-75
2021/08/25 00:50:52;;;;;;;;;7.75;7.50;;;;;17.50;58.35;101970.97;5029825;28;46137;-75
2021/08/25 00:53:22;;;;;;;;;7.25;7.25;;;;;17.33;58.46;101950.59;5033223;28;45572;-75
2021/08/25 00:55:47;;;;;;;;;9.75;8.25;;;;;17.45;58.48;101968.53;5028055;28;45519;-75
2021/08/25 00:58:13;;;;;;;;;9.00;6.50;;;;;17.41;58.32;101966.13;5029902;28;47664;-74
2021/08/25 01:00:54;;;;;;;;;8.75;5.50;;;;;17.28;58.18;101947.31;5030080;28;46296;-75
2021/08/25 01:03:31;;;;;;;;;8.75;7.75;;;;;17.37;58.55;101970.72;5027683;28;45555;-75
2021/08/25 01:05:57;;;;;;;;;6.75;5.00;;;;;17.05;58.63;101918.41;5028160;28;45913;-75
2021/08/25 01:08:24;;;;;;;;;8.25;8.25;;;;;17.34;58.57;101970.03;5010479;28;45435;-75
2021/08/25 01:10:50;;;;;;;;;9.00;7.75;;;;;17.34;58.94;101962.94;5032051;28;45713;-77
2021/08/25 01:13:15;;;;;;;;;5.50;5.25;;;;;17.33;59.10;101961.22;5032465;28;45386;-76
2021/08/25 01:15:42;;;;;;;;;7.50;6.75;;;;;17.33;59.13;101955.00;5015263;28;45365;-76
2021/08/25 01:18:17;;;;;;;;;8.75;7.00;;;;;17.27;59.07;101948.22;5031307;28;45530;-76
2021/08/25 01:20:44;;;;;;;;;10.00;6.50;;;;;17.31;58.93;101959.56;5033342;28;47675;-76
2021/08/25 01:23:12;;;;;;;;;6.25;6.25;;;;;17.26;58.88;101956.28;5030332;28;45881;-75
2021/08/25 01:25:38;;;;;;;;;6.75;6.00;;;;;17.28;59.39;101957.06;5032012;28;45380;-78
2021/08/25 01:28:07;;;;;;;;;6.25;6.25;;;;;17.27;59.02;101963.31;5032524;28;45477;-76
2021/08/25 01:30:36;;;;;;;;;9.00;6.00;;;;;17.23;59.23;101952.00;5013350;28;47242;-76
2021/08/25 01:33:02;;;;;;;;;9.50;7.25;;;;;17.20;59.45;101949.50;5033766;28;45721;-75
2021/08/25 01:35:45;;;;;;;;;6.00;5.00;;;;;17.23;59.48;101954.66;5032649;28;45539;-75
2021/08/25 01:38:27;;;;;;;;;9.75;7.75;;;;;17.18;59.53;101954.88;5031161;28;45459;-76
2021/08/25 01:40:52;;;;;;;;;8.25;5.75;;;;;17.16;59.34;101947.91;5030978;28;47093;-76
2021/08/25 01:43:17;;;;;;;;;8.25;6.50;;;;;17.19;59.95;101955.75;5034420;28;45419;-75
2021/08/25 01:45:43;;;;;;;;;5.75;5.00;;;;;17.18;59.45;101960.22;5032807;28;45566;-76
2021/08/25 01:48:08;;;;;;;;;6.25;6.25;;;;;17.15;59.60;101954.19;5029979;28;51461;-75
2021/08/25 01:50:34;;;;;;;;;6.75;6.00;;;;;17.15;59.61;101948.88;5033548;28;45975;-75
2021/08/25 01:52:59;;;;;;;;;6.75;6.75;;;;;17.07;60.00;101941.31;5034268;28;45469;-75
2021/08/25 01:55:24;;;;;;;;;7.00;6.75;;;;;17.12;60.05;101946.34;5034962;28;45410;-75
2021/08/25 01:57:50;;;;;;;;;10.25;8.25;;;;;17.07;60.29;101941.31;5038184;28;45380;-76
2021/08/25 02:00:16;;;;;;;;;8.00;6.25;;;;;17.07;60.16;101943.97;5034661;28;46189;-76
2021/08/25 02:02:41;;;;;;;;;6.50;6.00;;;;;17.07;59.96;101945.72;5016960;28;45814;-76
2021/08/25 02:05:07;;;;;;;;;9.00;6.75;;;;;17.06;60.56;101939.56;5036677;28;50190;-76
2021/08/25 02:07:32;;;;;;;;;5.75;5.75;;;;;17.06;60.51;101938.69;5031658;28;45372;-75
2021/08/25 02:09:57;;;;;;;;;7.75;7.75;;;;;16.77;60.71;101890.59;5033098;28;45363;-75
2021/08/25 02:12:23;;;;;;;;;9.75;7.00;;;;;17.02;59.65;101937.13;5033954;28;45885;-76
2021/08/25 02:14:48;;;;;;;;;5.50;5.50;;;;;16.99;61.11;101932.84;5035828;28;45673;-75
2021/08/25 02:17:13;;;;;;;;;6.25;6.25;;;;;16.93;60.69;101925.19;5033348;28;45692;-77
2021/08/25 02:19:39;;;;;;;;;7.00;6.00;;;;;16.96;60.95;101930.34;5029594;28;46634;-75
2021/08/25 02:22:04;;;;;;;;;12.25;9.75;;;;;16.94;60.89;101932.22;5034404;28;45408;-75
2021/08/25 02:24:30;;;;;;;;;9.50;7.25;;;;;16.86;61.10;101926.44;5043932;28;45380;-75
2021/08/25 02:26:55;;;;;;;;;7.75;6.50;;;;;16.87;60.88;101923.72;5036669;28;45337;-76
2021/08/25 02:29:20;;;;;;;;;8.50;5.75;;;;;16.84;61.04;101929.16;5039201;28;61521;-75
2021/08/25 02:31:46;;;;;;;;;9.50;6.50;;;;;16.82;61.52;101930.19;5036845;28;45285;-76
2021/08/25 02:34:11;;;;;;;;;7.00;6.25;;;;;16.80;61.59;101927.59;5036761;28;54366;-76
2021/08/25 02:36:36;;;;;;;;;8.00;6.00;;;;;16.70;61.71;101918.34;5040635;28;53719;-75
2021/08/25 02:39:02;;;;;;;;;9.00;7.75;;;;;16.75;60.87;101923.44;5039071;28;46746;-75
2021/08/25 02:41:28;;;;;;;;;7.75;7.75;;;;;16.60;61.58;101911.78;5039189;28;45656;-75
2021/08/25 02:43:53;;;;;;;;;8.75;6.25;;;;;16.70;61.02;101935.16;5040682;28;45632;-75
2021/08/25 02:46:19;;;;;;;;;7.75;7.75;;;;;16.67;61.82;101935.28;5044064;28;45547;-75
2021/08/25 02:48:45;;;;;;;;;9.25;7.25;;;;;16.65;62.04;101926.56;5038965;28;45484;-75
2021/08/25 02:51:10;;;;;;;;;6.50;6.50;;;;;16.64;61.66;101935.44;5037296;28;45503;-75
2021/08/25 02:53:35;;;;;;;;;7.75;7.50;;;;;16.54;61.73;101909.41;5039908;28;46011;-76
2021/08/25 02:56:01;;;;;;;;;6.75;6.75;;;;;16.32;61.54;101896.34;5022608;28;45480;-75
2021/08/25 02:58:26;;;;;;;;;8.75;6.00;;;;;16.55;62.37;101927.06;5033532;28;46726;-76
2021/08/25 03:00:52;;;;;;;;;6.00;6.00;;;;;16.50;62.43;101923.81;5022507;28;45379;-75
2021/08/25 03:03:17;;;;;;;;;6.00;6.00;;;;;16.50;62.06;101923.81;5038706;28;45443;-75
2021/08/25 03:05:42;;;;;;;;;7.00;5.25;;;;;16.48;62.96;101923.84;5037833;28;45349;-75
2021/08/25 03:08:08;;;;;;;;;10.25;5.50;;;;;16.47;63.11;101927.44;5037743;28;46051;-75
2021/08/25 03:10:33;;;;;;;;;7.50;6.25;;;;;16.46;63.23;101932.84;5035572;28;45328;-76
2021/08/25 03:12:58;;;;;;;;;6.50;6.00;;;;;16.39;62.47;101914.56;5035453;28;45447;-76
2021/08/25 03:15:24;;;;;;;;;7.00;5.50;;;;;16.40;62.94;101920.72;5038236;28;45479;-76
2021/08/25 03:17:50;;;;;;;;;10.50;9.50;;;;;16.37;62.90;101912.91;5040329;28;46060;-76
2021/08/25 03:20:15;;;;;;;;;8.00;7.75;;;;;16.35;62.86;101915.63;5037442;28;45603;-75
2021/08/25 03:22:41;;;;;;;;;8.50;7.00;;;;;16.33;63.36;101921.94;5038022;28;45721;-75
2021/08/25 03:25:08;;;;;;;;;10.00;6.00;;;;;16.27;63.86;101915.13;5043301;28;45415;-75
2021/08/25 03:27:34;;;;;;;;;7.00;6.50;;;;;16.30;63.54;101922.09;5037369;28;46262;-75
2021/08/25 03:29:59;;;;;;;;;10.25;5.50;;;;;16.28;63.44;101916.84;5038859;28;45529;-75
2021/08/25 03:32:25;;;;;;;;;8.00;7.50;;;;;16.25;63.63;101917.00;5037357;28;45407;-75
2021/08/25 03:34:50;;;;;;;;;7.50;6.50;;;;;16.15;63.77;101907.78;5036967;28;45398;-75
2021/08/25 03:37:16;;;;;;;;;9.00;6.25;;;;;16.20;63.68;101913.72;5049230;28;45680;-79
2021/08/25 03:39:42;;;;;;;;;6.50;6.50;;;;;16.18;63.72;101911.16;5040480;28;46120;-75
2021/08/25 03:42:10;;;;;;;;;9.25;7.00;;;;;16.15;63.66;101907.78;5034132;28;45554;-75
2021/08/25 03:44:39;;;;;;;;;7.00;7.00;;;;;16.14;64.16;101912.22;5037564;28;45431;-75
2021/08/25 03:47:07;;;;;;;;;8.00;8.00;;;;;16.07;64.11;101908.13;5020100;28;47442;-76
2021/08/25 03:49:33;;;;;;;;;8.00;6.00;;;;;16.06;64.41;101914.38;5035481;28;45521;-75
2021/08/25 03:51:59;;;;;;;;;7.25;7.25;;;;;16.05;64.20;101911.78;5041949;28;45554;-76
2021/08/25 03:54:25;;;;;;;;;10.25;6.25;;;;;16.04;64.28;101915.38;5034456;28;45381;-75
2021/08/25 03:56:50;;;;;;;;;10.00;8.75;;;;;16.01;63.68;101912.88;5038832;28;46458;-76
2021/08/25 03:59:16;;;;;;;;;8.50;8.00;;;;;16.00;64.11;101916.44;5020174;28;46994;-75
2021/08/25 04:01:41;;;;;;;;;7.75;7.00;;;;;15.97;64.81;101913.94;5034928;28;45438;-75
2021/08/25 04:04:08;;;;;;;;;9.50;8.50;;;;;15.61;64.24;101851.09;5036754;28;45416;-75
2021/08/25 04:06:38;;;;;;;;;8.50;7.00;;;;;15.93;65.07;101905.28;5038000;28;46368;-75
2021/08/25 04:09:04;;;;;;;;;10.00;7.75;;;;;15.90;64.22;101906.28;5036757;28;45432;-75
2021/08/25 04:11:31;;;;;;;;;6.25;5.75;;;;;15.88;65.17;101909.94;5035374;28;45419;-75
2021/08/25 04:13:56;;;;;;;;;9.00;7.75;;;;;15.79;64.77;101900.59;5036159;28;46068;-75
2021/08/25 04:16:21;;;;;;;;;10.00;7.75;;;;;15.81;64.49;101893.44;5037769;28;45454;-76
2021/08/25 04:18:47;;;;;;;;;10.00;8.00;;;;;15.79;64.88;101899.75;5038545;28;56557;-76
2021/08/25 04:21:12;;;;;;;;;8.00;7.50;;;;;15.77;64.78;101899.84;5036361;28;46023;-76
2021/08/25 04:23:37;;;;;;;;;10.00;7.00;;;;;15.76;65.27;101900.75;5036463;28;45389;-76
2021/08/25 04:26:03;;;;;;;;;10.00;9.00;;;;;15.72;65.13;101900.97;5035361;28;45558;-75
2021/08/25 04:28:28;;;;;;;;;8.75;8.50;;;;;15.75;65.96;101899.03;5033123;28;45449;-75
2021/08/25 04:30:54;;;;;;;;;10.75;8.00;;;;;15.73;65.57;101900.91;5041572;28;45391;-76
2021/08/25 04:33:19;;;;;;;;;9.75;8.50;;;;;15.72;65.77;101900.97;5035265;28;45404;-75
2021/08/25 04:35:44;;;;;;;;;7.50;6.75;;;;;15.70;65.71;101903.69;5037475;28;46261;-75
2021/08/25 04:38:10;;;;;;;;;8.25;7.00;;;;;15.70;65.58;101903.69;5034725;28;47020;-76
2021/08/25 04:40:35;;;;;;;;;8.75;7.00;;;;;15.69;65.64;101901.97;5048430;28;45364;-75
2021/08/25 04:43:00;;;;;;;;;10.50;8.75;;;;;15.64;65.70;101893.34;5035879;28;45477;-75
2021/08/25 04:45:26;;;;;;;;;10.50;7.75;;;;;15.67;66.17;101901.19;5033828;28;45427;-75
2021/08/25 04:47:52;;;;;;;;;8.50;8.50;;;;;15.67;66.33;101902.97;5036742;28;45898;-75
2021/08/25 04:50:17;;;;;;;;;8.75;7.50;;;;;15.67;66.01;101903.84;5036891;28;45388;-75
2021/08/25 04:52:42;;;;;;;;;9.50;8.00;;;;;15.55;65.99;101894.59;5033589;28;45443;-75
2021/08/25 04:55:08;;;;;;;;;8.25;8.00;;;;;15.61;65.86;101907.59;5034128;28;60468;-76
2021/08/25 04:57:33;;;;;;;;;11.00;8.50;;;;;15.60;66.13;101903.19;5018681;28;45389;-75
2021/08/25 04:59:59;;;;;;;;;9.75;8.00;;;;;15.58;65.70;101901.56;5036032;28;45580;-75
2021/08/25 05:02:24;;;;;;;;;8.00;6.00;;;;;15.57;66.01;101905.16;5035597;28;45351;-76
2021/08/25 05:04:49;;;;;;;;;9.33;7.67;;;;;15.52;66.11;101891.25;5034901;28;67205;-77
2021/08/25 05:07:15;;;;;;;;;9.75;8.00;;;;;15.57;66.57;101899.84;5047502;28;45665;-75
2021/08/25 05:09:40;;;;;;;;;9.00;8.00;;;;;15.54;66.76;101897.31;5036714;28;45341;-77
2021/08/25 05:12:06;;;;;;;;;10.25;7.75;;;;;15.56;66.56;101899.00;5039729;28;46237;-75
2021/08/25 05:14:31;;;;;;;;;11.00;11.00;;;;;15.58;66.48;101906.84;5036662;28;46220;-75
2021/08/25 05:16:56;;;;;;;;;10.25;7.75;;;;;15.58;66.30;101905.06;5045135;28;47181;-75
2021/08/25 05:19:22;;;;;;;;;8.00;7.75;;;;;15.59;66.61;101900.63;5038618;28;45462;-76
2021/08/25 05:21:47;;;;;;;;;8.50;7.75;;;;;15.59;66.18;101901.47;5037201;28;45415;-75
2021/08/25 05:24:13;;;;;;;;;10.00;10.00;;;;;15.59;66.55;101897.97;5017822;28;47541;-75
2021/08/25 05:26:38;;;;;;;;;13.25;8.25;;;;;15.55;66.18;101899.91;5034341;28;57055;-75
2021/08/25 05:29:03;;;;;;;;;14.75;10.00;;;;;15.59;66.65;101904.13;5036177;28;45503;-76
2021/08/25 05:31:29;;;;;;;;;10.25;7.00;;;;;15.60;66.44;101908.50;5032553;28;45475;-75
2021/08/25 05:33:56;;;;;;;;;11.75;11.00;;;;;15.60;66.44;101900.53;5037761;28;46169;-75
2021/08/25 05:36:22;;;;;;;;;13.50;10.25;;;;;15.63;66.19;101910.19;5034640;28;45862;-75
2021/08/25 05:38:47;;;;;;;;;9.00;7.00;;;;;15.60;66.52;101907.63;5034255;28;45339;-76
2021/08/25 05:41:12;;;;;;;;;10.25;9.00;;;;;15.65;66.84;101918.91;5036827;28;49707;-76
2021/08/25 05:43:38;;;;;;;;;13.75;10.25;;;;;15.65;66.57;101905.69;5031377;28;50814;-75
2021/08/25 05:46:03;;;;;;;;;14.50;10.75;;;;;15.71;65.84;101910.69;5036885;28;51081;-76
2021/08/25 05:48:28;;;;;;;;;13.25;9.25;;;;;15.74;66.25;101909.72;5044055;28;45518;-75
2021/08/25 05:50:54;;;;;;;;;8.25;8.00;;;;;15.75;66.37;101914.06;5036776;28;45516;-75
2021/08/25 05:53:19;;;;;;;;;10.50;9.25;;;;;15.73;66.36;101910.66;5034056;28;45920;-74
2021/08/25 05:55:45;;;;;;;;;9.75;9.75;;;;;15.79;66.69;101919.16;5011639;28;46304;-75
2021/08/25 05:58:10;;;;;;;;;12.50;10.00;;;;;15.83;66.39;101914.59;5035288;28;50658;-76
2021/08/25 06:00:36;;;;;;;;;10.50;9.50;;;;;15.85;66.40;101916.22;5036598;28;45495;-74
2021/08/25 06:03:01;;;;;;;;;12.75;10.00;;;;;15.91;66.59;101930.97;5036316;28;46824;-75
2021/08/25 06:05:26;;;;;;;;;9.25;8.50;;;;;15.90;66.14;101911.56;5045002;28;45403;-75
2021/08/25 06:07:53;;;;;;;;;10.00;8.75;;;;;16.03;66.06;101916.31;5042384;28;45401;-74
2021/08/25 06:10:19;;;;;;;;;11.25;9.75;;;;;16.12;66.38;101921.16;5034712;28;46581;-76
2021/08/25 06:12:44;;;;;;;;;11.25;7.75;;;;;16.17;66.08;101922.66;5037025;28;46034;-75
2021/08/25 06:15:09;;;;;;;;;10.50;9.50;;;;;16.30;66.21;101927.41;5039200;28;48625;-75
2021/08/25 06:17:35;;;;;;;;;9.50;9.00;;;;;16.32;66.03;101913.13;5034610;28;45748;-75
2021/08/25 06:20:00;;;;;;;;;13.75;10.00;;;;;16.44;65.24;101928.47;5042137;28;45534;-76
2021/08/25 06:22:25;;;;;;;;;10.25;9.00;;;;;16.36;65.32;101901.44;5040096;28;46007;-73
2021/08/25 06:24:51;;;;;;;;;13.00;10.00;;;;;16.59;65.43;101931.28;5032808;28;45670;-73
2021/08/25 06:27:17;;;;;;;;;11.75;9.50;;;;;16.67;65.27;101937.09;5032137;28;47040;-74
2021/08/25 06:29:43;;;;;;;;;10.00;9.50;;;;;16.73;64.96;101931.50;5015476;28;46251;-74
2021/08/25 06:32:08;;;;;;;;;10.00;10.00;;;;;16.81;65.29;101926.69;5031282;28;45509;-75
2021/08/25 06:34:34;;;;;;;;;12.75;10.75;;;;;16.91;65.13;101919.97;5031744;28;45648;-74
2021/08/25 06:37:00;;;;;;;;;8.75;7.75;;;;;17.02;64.68;101916.78;5035120;28;45654;-72
2021/08/25 06:39:25;;;;;;;;;10.50;10.25;;;;;17.11;64.85;101910.97;5031809;28;45587;-73
2021/08/25 06:41:51;;;;;;;;;10.50;7.50;;;;;17.19;63.99;101915.91;5036847;28;45463;-73
2021/08/25 06:44:16;;;;;;;;;10.75;9.00;;;;;17.23;63.95;101917.47;5037978;28;45400;-73
2021/08/25 06:46:41;;;;;;;;;8.75;8.75;;;;;17.33;64.15;101926.69;5037379;28;49256;-73
2021/08/25 06:49:06;;;;;;;;;12.75;9.50;;;;;17.40;63.59;101920.09;5036087;28;45285;-73
2021/08/25 06:51:33;;;;;;;;;9.50;8.25;;;;;17.51;63.56;101932.81;5040539;28;51475;-73
2021/08/25 06:53:59;;;;;;;;;9.50;9.00;;;;;17.61;63.70;101915.44;5033111;28;45930;-73
2021/08/25 06:56:24;;;;;;;;;14.00;11.25;;;;;17.80;63.50;101923.31;5042006;28;45348;-73
2021/08/25 06:58:50;;;;;;;;;9.25;8.00;;;;;17.95;63.00;101914.47;5042481;28;45463;-74
2021/08/25 07:01:15;;;;;;;;;11.25;8.00;;;;;18.09;62.65;101920.84;5036649;28;54234;-73
2021/08/25 07:03:41;;;;;;;;;10.00;8.50;;;;;18.23;62.56;101928.91;5035156;28;62423;-73
2021/08/25 07:06:06;;;;;;;;;11.75;9.75;;;;;18.38;62.21;101930.72;5029376;28;45571;-73
2021/08/25 07:08:32;;;;;;;;;12.50;8.75;;;;;18.58;61.82;101929.56;5035370;28;45611;-73
2021/08/25 07:10:57;;;;;;;;;10.50;9.25;;;;;18.66;61.48;101932.66;5044410;28;47328;-73
2021/08/25 07:13:22;;;;;;;;;11.00;9.25;;;;;18.73;61.26;101931.38;5046491;28;45470;-73
2021/08/25 07:15:48;;;;;;;;;9.00;8.00;;;;;18.83;61.25;101931.69;5035180;28;45408;-72
2021/08/25 07:18:13;;;;;;;;;8.50;8.00;;;;;18.94;60.97;101931.06;5033857;28;45536;-72
2021/08/25 07:20:38;;;;;;;;;11.00;9.00;;;;;19.01;60.21;101925.28;5037679;28;45461;-73
2021/08/25 07:23:03;;;;;;;;;9.75;8.00;;;;;19.15;60.33;101926.25;5036508;28;54760;-73
2021/08/25 07:25:29;;;;;;;;;10.00;7.50;;;;;19.23;60.08;101926.66;5015333;28;45638;-74
2021/08/25 07:27:54;;;;;;;;;5.00;5.00;;;;;19.28;59.80;101917.44;5039674;28;45387;-72
2021/08/25 07:30:19;;;;;;;;;10.50;8.25;;;;;19.34;59.67;101908.22;5036563;28;46274;-73
2021/08/25 07:32:45;;;;;;;;;9.50;8.25;;;;;19.47;59.66;101916.31;5034681;28;52086;-72
2021/08/25 07:35:11;;;;;;;;;9.25;7.25;;;;;19.56;59.60;101919.25;5035706;28;45481;-72
2021/08/25 07:37:37;;;;;;;;;7.75;7.75;;;;;19.70;58.84;101913.09;5016546;28;45687;-72
2021/08/25 07:40:05;;;;;;;;;8.25;8.25;;;;;19.83;58.90;101907.84;5037533;28;45530;-73
2021/08/25 07:42:30;;;;;;;;;9.50;9.50;;;;;19.92;58.76;101911.75;5037568;28;45607;-73
2021/08/25 07:44:56;;;;;;;;;10.50;9.00;;;;;19.96;58.27;101911.47;5031480;28;52626;-71
2021/08/25 07:47:21;;;;;;;;;27.00;22.25;;;;;19.97;57.96;101890.97;5035471;28;45573;-73
2021/08/25 07:49:46;;;;;;;;;9.00;8.75;;;;;20.18;58.11;101915.41;5033816;28;48312;-73
2021/08/25 07:52:12;;;;;;;;;8.50;7.25;;;;;20.30;57.66;101907.47;5034989;28;45526;-74
2021/08/25 07:54:37;;;;;;;;;8.25;7.75;;;;;20.42;57.82;101905.81;5033308;28;45551;-73
2021/08/25 07:57:02;;;;;;;;;13.00;8.75;;;;;20.52;57.09;101914.13;5035565;28;53791;-73
2021/08/25 07:59:28;;;;;;;;;6.75;6.75;;;;;20.59;57.00;101900.25;5030246;28;46226;-73
2021/08/25 08:01:53;;;;;;;;;10.00;8.75;;;;;20.81;57.31;101905.00;5033489;28;49572;-73
2021/08/25 08:04:18;;;;;;;;;10.25;7.50;;;;;21.15;56.88;101904.53;5032702;28;45545;-73
2021/08/25 08:06:44;;;;;;;;;8.25;8.25;;;;;21.28;55.78;101895.53;5042314;28;45506;-72
2021/08/25 08:09:09;;;;;;;;;7.50;7.00;;;;;21.31;55.87;101899.88;5013072;28;47186;-73
2021/08/25 08:11:34;;;;;;;;;9.25;8.25;;;;;21.33;55.27;101888.09;5035382;28;45479;-73
2021/08/25 08:14:00;;;;;;;;;13.00;9.25;;;;;21.54;55.91;101888.38;5036715;28;45791;-73
2021/08/25 08:16:25;;;;;;;;;11.75;7.50;;;;;21.84;55.28;101895.19;5039410;28;61092;-73
2021/08/25 08:21:24;;;;;;;;;10.25;7.25;;;;;22.23;54.55;101891.44;5038747;28;45681;-74
2021/08/25 08:23:49;;;;;;;;;8.50;7.00;;;;;22.34;54.23;101888.84;5036913;28;45570;-72
2021/08/25 08:26:15;;;;;;;;;6.75;6.75;;;;;22.60;54.00;101894.06;5037164;28;45508;-73
2021/08/25 08:28:40;;;;;;;;;8.75;7.75;;;;;22.82;53.84;101878.09;5032040;28;45493;-73
2021/08/25 08:31:05;;;;;;;;;11.00;8.75;;;;;23.26;53.32;101872.94;5031091;28;54227;-73
2021/08/25 08:33:31;;;;;;;;;7.75;5.00;;;;;24.63;52.96;101885.94;5030027;28;45428;-73
2021/08/25 08:35:56;;;;;;;;;8.75;7.00;;;;;26.17;50.13;101868.03;5034917;28;45633;-73
2021/08/25 08:38:21;;;;;;;;;9.50;8.00;;;;;27.20;48.31;101854.78;5038545;28;45574;-73
2021/08/25 08:40:47;;;;;;;;;9.50;7.75;;;;;27.87;47.00;101865.44;5029145;28;46184;-73
2021/08/25 08:43:12;;;;;;;;;10.25;7.50;;;;;29.67;46.02;101871.31;5029893;28;45542;-73
2021/08/25 08:45:40;;;;;;;;;11.75;8.00;;;;;31.72;43.75;101866.72;5029974;28;45557;-73
2021/08/25 08:48:11;;;;;;;;;8.75;7.00;;;;;33.71;39.68;101879.16;5030152;28;46420;-73
2021/08/25 08:50:38;;;;;;;;;7.75;7.00;;;;;34.98;37.06;101880.31;5029191;28;45466;-72
2021/08/25 08:53:08;;;;;;;;;7.50;7.25;;;;;35.73;35.23;101878.63;5030081;28;45629;-75
2021/08/25 08:55:34;;;;;;;;;11.00;9.00;;;;;37.11;34.09;101884.50;5028389;28;45508;-76
2021/08/25 08:57:59;;;;;;;;;8.25;6.25;;;;;38.84;33.31;101885.34;5030810;28;46126;-75
2021/08/25 09:00:25;;;;;;;;;8.50;7.75;;;;;40.06;29.71;101879.06;5028572;28;45427;-73
2021/08/25 09:02:50;;;;;;;;;7.75;7.75;;;;;40.01;29.53;101865.16;5027854;28;45482;-74
2021/08/25 09:05:23;;;;;;;;;7.25;7.25;;;;;39.78;30.44;101891.53;5027825;28;45425;-73
2021/08/25 09:07:57;;;;;;;;;10.00;7.50;;;;;39.28;29.82;101880.69;5028299;28;47074;-74
2021/08/25 09:10:36;;;;;;;;;6.75;6.00;;;;;38.62;29.75;101884.84;5030981;28;45733;-74
2021/08/25 09:13:09;;;;;;;;;6.75;5.75;;;;;37.94;29.40;101876.44;5030011;28;45455;-75
2021/08/25 09:15:40;;;;;;;;;7.00;6.50;;;;;37.24;29.77;101880.91;5030708;28;45457;-76
2021/08/25 09:18:08;;;;;;;;;8.25;6.50;;;;;36.62;30.04;101871.28;5029910;28;45551;-75
2021/08/25 09:20:44;;;;;;;;;8.25;7.25;;;;;36.16;30.30;101872.88;5027767;28;45522;-73
2021/08/25 09:23:18;;;;;;;;;9.00;7.75;;;;;35.83;30.78;101869.19;5029839;28;45570;-74
2021/08/25 09:26:07;;;;;;;;;9.25;7.25;;;;;35.58;31.13;101866.16;5028363;28;45518;-75
2021/08/25 09:28:35;;;;;;;;;10.00;8.50;;;;;35.43;31.30;101858.91;5023702;28;47449;-75
2021/08/25 09:31:00;;;;;;;;;8.25;8.25;;;;;35.31;31.25;101866.00;5036362;28;46026;-72
2021/08/25 09:33:31;;;;;;;;;8.75;7.75;;;;;35.08;31.63;101860.78;5035669;28;45812;-75
2021/08/25 09:35:59;;;;;;;;;7.75;6.50;;;;;34.90;31.16;101868.66;5027492;28;45569;-74
2021/08/25 09:38:26;;;;;;;;;8.25;7.00;;;;;34.42;30.86;101868.44;5023054;28;45333;-71
2021/08/25 09:40:58;;;;;;;;;8.75;8.00;;;;;34.20;31.12;101864.88;5032155;28;45425;-74
2021/08/25 09:43:53;;;;;;;;;5.00;5.00;;;;;34.01;30.96;101871.78;5031290;28;45431;-74
2021/08/25 09:46:21;;;;;;;;;7.25;6.75;;;;;33.86;31.80;101858.16;5018372;28;45596;-74
2021/08/25 09:48:55;;;;;;;;;5.25;5.25;;;;;33.68;31.86;101863.19;5033926;28;46089;-75
2021/08/25 09:51:23;;;;;;;;;8.00;6.75;;;;;33.35;31.84;101865.44;5030259;28;45479;-74
2021/08/25 09:53:51;;;;;;;;;8.00;7.25;;;;;33.07;31.87;101852.47;5034165;28;46966;-76
2021/08/25 09:56:30;;;;;;;;;12.75;11.00;;;;;33.04;32.17;101849.28;5033478;28;45606;-73
2021/08/25 09:58:56;;;;;;;;;8.25;6.75;;;;;32.98;32.13;101848.16;5031661;28;46062;-74
2021/08/25 10:01:22;;;;;;;;;8.75;8.75;;;;;33.08;32.04;101847.88;5030721;28;45728;-75
2021/08/25 10:03:48;;;;;;;;;9.00;7.75;;;;;33.06;31.47;101844.50;5033177;28;45482;-72
2021/08/25 10:06:18;;;;;;;;;5.50;5.25;;;;;33.17;31.78;101846.75;5014266;28;45571;-72
2021/08/25 10:08:44;;;;;;;;;9.75;8.00;;;;;33.27;31.59;101841.88;5029758;28;45431;-73
2021/08/25 10:11:10;;;;;;;;;6.00;5.00;;;;;33.47;31.48;101834.84;5032507;28;45570;-72
2021/08/25 10:13:36;;;;;;;;;7.50;7.50;;;;;33.84;31.62;101834.88;5032912;28;45688;-72
2021/08/25 10:16:02;;;;;;;;;7.75;7.75;;;;;34.40;30.68;101837.75;5015004;28;45592;-72
2021/08/25 10:18:29;;;;;;;;;7.75;6.25;;;;;34.47;29.84;101814.97;5035300;28;45705;-72
2021/08/25 10:21:00;;;;;;;;;7.00;5.00;;;;;34.46;30.02;101837.84;5030911;28;45444;-72
2021/08/25 10:23:56;;;;;;;;;9.00;8.00;;;;;33.82;29.92;101845.94;5029604;28;45610;-72
2021/08/25 10:26:23;;;;;;;;;7.25;7.00;;;;;33.13;30.31;101824.50;5025122;28;45599;-72
2021/08/25 10:29:04;;;;;;;;;6.00;6.00;;;;;32.76;31.03;101833.53;5025778;28;45494;-72
2021/08/25 10:31:48;;;;;;;;;5.75;5.00;;;;;32.46;30.64;101819.88;5012067;28;45641;-72
2021/08/25 10:34:15;;;;;;;;;9.25;7.00;;;;;32.35;31.32;101819.44;5028110;28;45563;-73
2021/08/25 10:36:41;;;;;;;;;9.50;7.50;;;;;32.23;31.55;101829.91;5025248;28;45487;-72
2021/08/25 10:39:32;;;;;;;;;8.75;7.75;;;;;32.04;31.53;101823.06;5028944;28;45851;-72
2021/08/25 10:41:58;;;;;;;;;10.00;8.50;;;;;31.79;31.54;101811.47;5024389;28;46558;-72
2021/08/25 10:47:15;;;;;;;;;7.50;7.00;;;;;31.52;32.22;101792.94;5028922;28;45821;-72
2021/08/25 10:49:44;;;;;;;;;8.00;5.25;;;;;31.54;32.14;101815.38;5031070;28;46249;-71
2021/08/25 10:52:15;;;;;;;;;6.50;6.00;;;;;31.43;32.59;101809.31;5032602;28;45443;-72
2021/08/25 10:54:45;;;;;;;;;7.25;7.00;;;;;31.39;32.25;101809.81;5033721;28;45364;-73
2021/08/25 10:57:13;;;;;;;;;5.00;5.00;;;;;31.29;32.97;101807.31;5031219;28;45530;-73
2021/08/25 10:59:39;;;;;;;;;6.50;6.25;;;;;31.11;32.90;101809.38;5030351;28;46214;-71
2021/08/25 11:02:04;;;;;;;;;7.25;7.25;;;;;31.04;32.16;101813.81;5030748;28;45504;-72
2021/08/25 11:04:30;;;;;;;;;6.75;6.25;;;;;30.85;32.51;101815.91;5031031;28;45842;-70
2021/08/25 11:07:02;;;;;;;;;7.50;6.25;;;;;30.64;32.67;101805.56;5034260;28;45703;-70
2021/08/25 11:09:31;;;;;;;;;9.50;7.50;;;;;30.60;33.19;101798.78;5032109;28;46128;-70
2021/08/25 11:11:59;;;;;;;;;9.00;8.00;;;;;30.59;33.81;101798.94;5029382;28;45708;-71
2021/08/25 11:14:49;;;;;;;;;8.50;7.00;;;;;30.60;33.41;101793.38;5030419;28;45482;-70
2021/08/25 11:17:25;;;;;;;;;8.00;7.75;;;;;30.60;32.78;101779.78;5029577;28;45435;-71
2021/08/25 11:19:55;;;;;;;;;7.00;7.00;;;;;30.63;32.96;101774.00;5027065;28;46148;-72
2021/08/25 11:22:24;;;;;;;;;7.75;6.50;;;;;30.64;33.64;101780.28;5030799;28;45744;-70
2021/08/25 11:24:54;;;;;;;;;15.75;13.00;;;;;30.70;33.58;101779.66;5033103;28;45510;-70
2021/08/25 11:27:24;;;;;;;;;8.50;8.00;;;;;30.78;33.66;101785.03;5032916;28;45377;-70